sensor_id;sensor_type;location;lat;lon;timestamp;P1;durP1;ratioP1;P2;durP2;ratioP2
19089;SDS011;9677;50.656;13.064;2023-03-19T00:00:54;13.13;;;11.83;;
19089;SDS011;9677;50.656;13.064;2023-03-19T00:03:23;12.47;;;11.27;;
19089;SDS011;9677;50.656;13.064;2023-03-19T00:05:52;12.47;;;11.17;;
19089;SDS011;9677;50.656;13.064;2023-03-19T00:08:21;12.83;;;11.50;;
19089;SDS011;9677;50.656;13.064;2023-03-19T00:10:49;12.77;;;11.47;;
19089;SDS011;9677;50.656;13.064;2023-03-19T00:13:18;11.80;;;10.63;;
19089;SDS011;9677;50.656;13.064;2023-03-19T00:15:47;12.27;;;11.00;;
19089;SDS011;9677;50.656;13.064;2023-03-19T00:18:15;11.83;;;10.70;;
19089;SDS011;9677;50.656;13.064;2023-03-19T00:20:43;12.00;;;10.80;;
19089;SDS011;9677;50.656;13.064;2023-03-19T00:23:13;12.30;;;11.10;;
19089;SDS011;9677;50.656;13.064;2023-03-19T00:25:42;12.20;;;11.00;;
19089;SDS011;9677;50.656;13.064;2023-03-19T00:28:10;12.57;;;11.37;;
19089;SDS011;9677;50.656;13.064;2023-03-19T00:30:38;12.30;;;11.03;;
19089;SDS011;9677;50.656;13.064;2023-03-19T00:33:07;12.90;;;11.60;;
19089;SDS011;9677;50.656;13.064;2023-03-19T00:35:37;12.90;;;11.60;;
19089;SDS011;9677;50.656;13.064;2023-03-19T00:38:06;12.23;;;10.93;;
19089;SDS011;9677;50.656;13.064;2023-03-19T00:40:36;12.47;;;11.07;;
19089;SDS011;9677;50.656;13.064;2023-03-19T00:43:05;12.20;;;11.00;;
19089;SDS011;9677;50.656;13.064;2023-03-19T00:45:33;13.60;;;11.60;;
19089;SDS011;9677;50.656;13.064;2023-03-19T00:48:02;12.40;;;11.30;;
19089;SDS011;9677;50.656;13.064;2023-03-19T00:50:30;12.60;;;11.40;;
19089;SDS011;9677;50.656;13.064;2023-03-19T00:52:59;12.83;;;11.50;;
19089;SDS011;9677;50.656;13.064;2023-03-19T00:55:27;12.53;;;11.23;;
19089;SDS011;9677;50.656;13.064;2023-03-19T00:57:57;12.30;;;11.10;;
19089;SDS011;9677;50.656;13.064;2023-03-19T01:00:26;11.87;;;10.67;;
19089;SDS011;9677;50.656;13.064;2023-03-19T01:02:55;12.50;;;11.20;;
19089;SDS011;9677;50.656;13.064;2023-03-19T01:05:23;13.57;;;11.60;;
19089;SDS011;9677;50.656;13.064;2023-03-19T01:07:53;11.87;;;10.70;;
19089;SDS011;9677;50.656;13.064;2023-03-19T01:10:23;12.23;;;11.03;;
19089;SDS011;9677;50.656;13.064;2023-03-19T01:12:52;12.07;;;10.90;;
19089;SDS011;9677;50.656;13.064;2023-03-19T01:15:22;12.23;;;11.03;;
19089;SDS011;9677;50.656;13.064;2023-03-19T01:17:50;13.30;;;11.43;;
19089;SDS011;9677;50.656;13.064;2023-03-19T01:20:19;13.50;;;11.03;;
19089;SDS011;9677;50.656;13.064;2023-03-19T01:22:50;12.40;;;11.20;;
19089;SDS011;9677;50.656;13.064;2023-03-19T01:25:18;12.33;;;11.13;;
19089;SDS011;9677;50.656;13.064;2023-03-19T01:27:58;12.30;;;11.00;;
19089;SDS011;9677;50.656;13.064;2023-03-19T01:30:28;12.70;;;11.47;;
19089;SDS011;9677;50.656;13.064;2023-03-19T01:33:23;12.50;;;11.20;;
19089;SDS011;9677;50.656;13.064;2023-03-19T01:36:00;12.67;;;11.43;;
19089;SDS011;9677;50.656;13.064;2023-03-19T01:38:48;12.80;;;11.50;;
19089;SDS011;9677;50.656;13.064;2023-03-19T01:41:17;12.20;;;11.00;;
19089;SDS011;9677;50.656;13.064;2023-03-19T01:43:47;11.73;;;10.63;;
19089;SDS011;9677;50.656;13.064;2023-03-19T01:46:40;12.20;;;11.00;;
19089;SDS011;9677;50.656;13.064;2023-03-19T01:49:34;12.20;;;10.90;;
19089;SDS011;9677;50.656;13.064;2023-03-19T01:52:18;11.80;;;10.60;;
19089;SDS011;9677;50.656;13.064;2023-03-19T01:55:00;12.10;;;10.90;;
19089;SDS011;9677;50.656;13.064;2023-03-19T01:57:49;12.27;;;11.17;;
19089;SDS011;9677;50.656;13.064;2023-03-19T02:00:35;11.67;;;10.57;;
19089;SDS011;9677;50.656;13.064;2023-03-19T02:03:07;11.70;;;10.60;;
19089;SDS011;9677;50.656;13.064;2023-03-19T02:05:54;12.50;;;10.50;;
19089;SDS011;9677;50.656;13.064;2023-03-19T02:08:24;13.80;;;11.33;;
19089;SDS011;9677;50.656;13.064;2023-03-19T02:10:54;12.40;;;11.20;;
19089;SDS011;9677;50.656;13.064;2023-03-19T02:13:26;11.37;;;10.30;;
19089;SDS011;9677;50.656;13.064;2023-03-19T02:15:54;12.57;;;11.37;;
19089;SDS011;9677;50.656;13.064;2023-03-19T02:18:24;11.87;;;10.80;;
19089;SDS011;9677;50.656;13.064;2023-03-19T02:20:55;11.20;;;10.10;;
19089;SDS011;9677;50.656;13.064;2023-03-19T02:23:32;11.60;;;10.40;;
19089;SDS011;9677;50.656;13.064;2023-03-19T02:26:14;12.43;;;11.13;;
19089;SDS011;9677;50.656;13.064;2023-03-19T02:28:47;11.70;;;10.53;;
19089;SDS011;9677;50.656;13.064;2023-03-19T02:31:25;11.93;;;10.73;;
19089;SDS011;9677;50.656;13.064;2023-03-19T02:33:55;12.13;;;11.00;;
19089;SDS011;9677;50.656;13.064;2023-03-19T02:36:26;11.63;;;10.53;;
19089;SDS011;9677;50.656;13.064;2023-03-19T02:39:00;12.00;;;10.80;;
19089;SDS011;9677;50.656;13.064;2023-03-19T02:41:32;12.27;;;11.07;;
19089;SDS011;9677;50.656;13.064;2023-03-19T02:44:03;12.47;;;11.17;;
19089;SDS011;9677;50.656;13.064;2023-03-19T02:46:32;11.20;;;10.10;;
19089;SDS011;9677;50.656;13.064;2023-03-19T02:49:01;11.17;;;10.17;;
19089;SDS011;9677;50.656;13.064;2023-03-19T02:51:30;11.80;;;10.60;;
19089;SDS011;9677;50.656;13.064;2023-03-19T02:53:59;12.10;;;11.00;;
19089;SDS011;9677;50.656;13.064;2023-03-19T02:56:27;11.80;;;10.60;;
19089;SDS011;9677;50.656;13.064;2023-03-19T02:58:57;12.03;;;10.90;;
19089;SDS011;9677;50.656;13.064;2023-03-19T03:01:25;12.13;;;11.03;;
19089;SDS011;9677;50.656;13.064;2023-03-19T03:03:53;12.10;;;11.00;;
19089;SDS011;9677;50.656;13.064;2023-03-19T03:06:22;12.90;;;10.60;;
19089;SDS011;9677;50.656;13.064;2023-03-19T03:08:50;12.57;;;11.37;;
19089;SDS011;9677;50.656;13.064;2023-03-19T03:11:19;12.00;;;10.90;;
19089;SDS011;9677;50.656;13.064;2023-03-19T03:13:47;11.80;;;10.70;;
19089;SDS011;9677;50.656;13.064;2023-03-19T03:16:17;12.17;;;10.60;;
19089;SDS011;9677;50.656;13.064;2023-03-19T03:18:45;11.33;;;10.23;;
19089;SDS011;9677;50.656;13.064;2023-03-19T03:21:13;11.97;;;10.87;;
19089;SDS011;9677;50.656;13.064;2023-03-19T03:23:45;11.80;;;10.60;;
19089;SDS011;9677;50.656;13.064;2023-03-19T03:26:14;12.57;;;11.40;;
19089;SDS011;9677;50.656;13.064;2023-03-19T03:28:42;12.07;;;10.97;;
19089;SDS011;9677;50.656;13.064;2023-03-19T03:31:12;12.70;;;11.50;;
19089;SDS011;9677;50.656;13.064;2023-03-19T03:33:42;12.30;;;11.07;;
19089;SDS011;9677;50.656;13.064;2023-03-19T03:36:11;11.57;;;10.37;;
19089;SDS011;9677;50.656;13.064;2023-03-19T03:38:40;12.13;;;11.03;;
19089;SDS011;9677;50.656;13.064;2023-03-19T03:41:08;12.53;;;11.23;;
19089;SDS011;9677;50.656;13.064;2023-03-19T03:43:37;12.40;;;11.20;;
19089;SDS011;9677;50.656;13.064;2023-03-19T03:46:07;12.60;;;11.33;;
19089;SDS011;9677;50.656;13.064;2023-03-19T03:48:35;12.23;;;11.00;;
19089;SDS011;9677;50.656;13.064;2023-03-19T03:51:05;12.33;;;11.23;;
19089;SDS011;9677;50.656;13.064;2023-03-19T03:53:34;11.90;;;10.70;;
19089;SDS011;9677;50.656;13.064;2023-03-19T03:56:03;12.47;;;11.23;;
19089;SDS011;9677;50.656;13.064;2023-03-19T03:58:32;11.87;;;10.77;;
19089;SDS011;9677;50.656;13.064;2023-03-19T04:01:01;12.33;;;11.13;;
19089;SDS011;9677;50.656;13.064;2023-03-19T04:03:31;12.33;;;11.13;;
19089;SDS011;9677;50.656;13.064;2023-03-19T04:05:59;12.30;;;11.10;;
19089;SDS011;9677;50.656;13.064;2023-03-19T04:08:29;12.57;;;11.27;;
19089;SDS011;9677;50.656;13.064;2023-03-19T04:10:58;12.87;;;11.67;;
19089;SDS011;9677;50.656;13.064;2023-03-19T04:13:26;12.20;;;11.00;;
19089;SDS011;9677;50.656;13.064;2023-03-19T04:15:54;12.90;;;11.70;;
19089;SDS011;9677;50.656;13.064;2023-03-19T04:18:23;12.07;;;10.87;;
19089;SDS011;9677;50.656;13.064;2023-03-19T04:20:52;12.10;;;10.90;;
19089;SDS011;9677;50.656;13.064;2023-03-19T04:23:20;12.10;;;10.93;;
19089;SDS011;9677;50.656;13.064;2023-03-19T04:25:50;12.83;;;11.53;;
19089;SDS011;9677;50.656;13.064;2023-03-19T04:28:18;12.33;;;11.13;;
19089;SDS011;9677;50.656;13.064;2023-03-19T04:30:47;12.77;;;11.57;;
19089;SDS011;9677;50.656;13.064;2023-03-19T04:33:15;11.90;;;10.80;;
19089;SDS011;9677;50.656;13.064;2023-03-19T04:35:44;12.17;;;11.07;;
19089;SDS011;9677;50.656;13.064;2023-03-19T04:38:12;12.10;;;10.90;;
19089;SDS011;9677;50.656;13.064;2023-03-19T04:40:40;12.27;;;11.07;;
19089;SDS011;9677;50.656;13.064;2023-03-19T04:43:10;12.67;;;11.37;;
19089;SDS011;9677;50.656;13.064;2023-03-19T04:45:39;11.73;;;10.63;;
19089;SDS011;9677;50.656;13.064;2023-03-19T04:48:08;12.73;;;11.43;;
19089;SDS011;9677;50.656;13.064;2023-03-19T04:50:37;12.27;;;11.07;;
19089;SDS011;9677;50.656;13.064;2023-03-19T04:53:06;12.67;;;11.47;;
19089;SDS011;9677;50.656;13.064;2023-03-19T04:55:36;12.20;;;11.10;;
19089;SDS011;9677;50.656;13.064;2023-03-19T04:58:15;13.30;;;11.83;;
19089;SDS011;9677;50.656;13.064;2023-03-19T05:00:50;12.60;;;11.40;;
19089;SDS011;9677;50.656;13.064;2023-03-19T05:03:26;11.90;;;10.80;;
19089;SDS011;9677;50.656;13.064;2023-03-19T05:05:54;12.27;;;11.07;;
19089;SDS011;9677;50.656;13.064;2023-03-19T05:08:23;12.10;;;11.00;;
19089;SDS011;9677;50.656;13.064;2023-03-19T05:10:51;12.13;;;10.93;;
19089;SDS011;9677;50.656;13.064;2023-03-19T05:13:21;13.03;;;11.83;;
19089;SDS011;9677;50.656;13.064;2023-03-19T05:15:52;12.70;;;11.50;;
19089;SDS011;9677;50.656;13.064;2023-03-19T05:18:22;12.27;;;11.17;;
19089;SDS011;9677;50.656;13.064;2023-03-19T05:20:52;12.37;;;11.27;;
19089;SDS011;9677;50.656;13.064;2023-03-19T05:23:23;12.13;;;10.93;;
19089;SDS011;9677;50.656;13.064;2023-03-19T05:26:04;13.13;;;11.60;;
19089;SDS011;9677;50.656;13.064;2023-03-19T05:29:12;13.07;;;11.70;;
19089;SDS011;9677;50.656;13.064;2023-03-19T05:32:09;12.10;;;10.80;;
19089;SDS011;9677;50.656;13.064;2023-03-19T05:34:39;12.33;;;11.13;;
19089;SDS011;9677;50.656;13.064;2023-03-19T05:37:08;12.20;;;11.00;;
19089;SDS011;9677;50.656;13.064;2023-03-19T05:39:37;12.10;;;10.90;;
19089;SDS011;9677;50.656;13.064;2023-03-19T05:42:08;12.57;;;11.27;;
19089;SDS011;9677;50.656;13.064;2023-03-19T05:44:38;12.53;;;11.33;;
19089;SDS011;9677;50.656;13.064;2023-03-19T05:47:15;12.43;;;11.23;;
19089;SDS011;9677;50.656;13.064;2023-03-19T05:49:51;11.87;;;10.67;;
19089;SDS011;9677;50.656;13.064;2023-03-19T05:52:19;12.73;;;11.50;;
19089;SDS011;9677;50.656;13.064;2023-03-19T05:54:48;13.53;;;11.73;;
19089;SDS011;9677;50.656;13.064;2023-03-19T05:57:43;13.07;;;11.77;;
19089;SDS011;9677;50.656;13.064;2023-03-19T06:00:18;12.77;;;11.47;;
19089;SDS011;9677;50.656;13.064;2023-03-19T06:02:48;11.93;;;10.80;;
19089;SDS011;9677;50.656;13.064;2023-03-19T06:05:29;13.13;;;11.27;;
19089;SDS011;9677;50.656;13.064;2023-03-19T06:08:05;12.40;;;11.20;;
19089;SDS011;9677;50.656;13.064;2023-03-19T06:10:54;12.40;;;11.20;;
19089;SDS011;9677;50.656;13.064;2023-03-19T06:13:23;12.00;;;10.80;;
19089;SDS011;9677;50.656;13.064;2023-03-19T06:15:58;12.30;;;11.07;;
19089;SDS011;9677;50.656;13.064;2023-03-19T06:18:30;12.67;;;11.40;;
19089;SDS011;9677;50.656;13.064;2023-03-19T06:21:04;11.80;;;10.70;;
19089;SDS011;9677;50.656;13.064;2023-03-19T06:23:33;12.53;;;11.20;;
19089;SDS011;9677;50.656;13.064;2023-03-19T06:26:03;12.27;;;11.07;;
19089;SDS011;9677;50.656;13.064;2023-03-19T06:28:41;12.20;;;11.00;;
19089;SDS011;9677;50.656;13.064;2023-03-19T06:31:11;12.40;;;11.23;;
19089;SDS011;9677;50.656;13.064;2023-03-19T06:33:52;12.13;;;10.93;;
19089;SDS011;9677;50.656;13.064;2023-03-19T06:36:22;12.40;;;11.20;;
19089;SDS011;9677;50.656;13.064;2023-03-19T06:38:51;12.20;;;11.00;;
19089;SDS011;9677;50.656;13.064;2023-03-19T06:41:20;12.20;;;11.10;;
19089;SDS011;9677;50.656;13.064;2023-03-19T06:43:50;13.20;;;11.80;;
19089;SDS011;9677;50.656;13.064;2023-03-19T06:46:20;13.10;;;11.90;;
19089;SDS011;9677;50.656;13.064;2023-03-19T06:48:49;12.27;;;11.07;;
19089;SDS011;9677;50.656;13.064;2023-03-19T06:51:17;12.83;;;11.53;;
19089;SDS011;9677;50.656;13.064;2023-03-19T06:53:46;11.87;;;10.77;;
19089;SDS011;9677;50.656;13.064;2023-03-19T06:56:14;11.53;;;10.43;;
19089;SDS011;9677;50.656;13.064;2023-03-19T06:58:43;11.97;;;10.80;;
19089;SDS011;9677;50.656;13.064;2023-03-19T07:01:11;12.20;;;11.00;;
19089;SDS011;9677;50.656;13.064;2023-03-19T07:03:41;12.33;;;11.07;;
19089;SDS011;9677;50.656;13.064;2023-03-19T07:06:09;12.60;;;11.40;;
19089;SDS011;9677;50.656;13.064;2023-03-19T07:08:38;12.03;;;10.83;;
19089;SDS011;9677;50.656;13.064;2023-03-19T07:11:11;12.50;;;11.20;;
19089;SDS011;9677;50.656;13.064;2023-03-19T07:13:41;12.37;;;11.20;;
19089;SDS011;9677;50.656;13.064;2023-03-19T07:16:10;12.80;;;11.60;;
19089;SDS011;9677;50.656;13.064;2023-03-19T07:18:38;12.23;;;11.13;;
19089;SDS011;9677;50.656;13.064;2023-03-19T07:21:08;11.90;;;10.73;;
19089;SDS011;9677;50.656;13.064;2023-03-19T07:23:36;12.27;;;11.07;;
19089;SDS011;9677;50.656;13.064;2023-03-19T07:26:05;11.77;;;10.57;;
19089;SDS011;9677;50.656;13.064;2023-03-19T07:28:33;12.23;;;11.13;;
19089;SDS011;9677;50.656;13.064;2023-03-19T07:31:02;12.53;;;11.33;;
19089;SDS011;9677;50.656;13.064;2023-03-19T07:33:31;12.43;;;11.23;;
19089;SDS011;9677;50.656;13.064;2023-03-19T07:35:59;12.50;;;11.20;;
19089;SDS011;9677;50.656;13.064;2023-03-19T07:38:29;12.40;;;11.20;;
19089;SDS011;9677;50.656;13.064;2023-03-19T07:40:57;11.70;;;10.70;;
19089;SDS011;9677;50.656;13.064;2023-03-19T07:43:28;11.13;;;10.10;;
19089;SDS011;9677;50.656;13.064;2023-03-19T07:45:57;12.50;;;11.30;;
19089;SDS011;9677;50.656;13.064;2023-03-19T07:48:26;14.83;;;11.60;;
19089;SDS011;9677;50.656;13.064;2023-03-19T07:50:54;12.27;;;11.10;;
19089;SDS011;9677;50.656;13.064;2023-03-19T07:53:23;11.50;;;10.40;;
19089;SDS011;9677;50.656;13.064;2023-03-19T07:55:53;12.60;;;11.30;;
19089;SDS011;9677;50.656;13.064;2023-03-19T07:58:22;11.57;;;10.47;;
19089;SDS011;9677;50.656;13.064;2023-03-19T08:00:51;12.30;;;11.10;;
19089;SDS011;9677;50.656;13.064;2023-03-19T08:03:20;11.60;;;10.40;;
19089;SDS011;9677;50.656;13.064;2023-03-19T08:05:49;11.90;;;10.70;;
19089;SDS011;9677;50.656;13.064;2023-03-19T08:08:18;12.90;;;11.50;;
19089;SDS011;9677;50.656;13.064;2023-03-19T08:10:46;13.83;;;11.00;;
19089;SDS011;9677;50.656;13.064;2023-03-19T08:13:17;12.20;;;10.93;;
19089;SDS011;9677;50.656;13.064;2023-03-19T08:15:46;12.30;;;11.10;;
19089;SDS011;9677;50.656;13.064;2023-03-19T08:18:15;12.60;;;11.30;;
19089;SDS011;9677;50.656;13.064;2023-03-19T08:20:44;11.87;;;10.67;;
19089;SDS011;9677;50.656;13.064;2023-03-19T08:23:12;11.63;;;10.43;;
19089;SDS011;9677;50.656;13.064;2023-03-19T08:25:41;16.50;;;11.07;;
19089;SDS011;9677;50.656;13.064;2023-03-19T08:28:09;12.37;;;11.07;;
19089;SDS011;9677;50.656;13.064;2023-03-19T08:30:39;12.37;;;11.17;;
19089;SDS011;9677;50.656;13.064;2023-03-19T08:33:08;11.77;;;10.57;;
19089;SDS011;9677;50.656;13.064;2023-03-19T08:35:36;14.93;;;10.77;;
19089;SDS011;9677;50.656;13.064;2023-03-19T08:38:05;13.33;;;11.20;;
19089;SDS011;9677;50.656;13.064;2023-03-19T08:40:33;11.57;;;10.47;;
19089;SDS011;9677;50.656;13.064;2023-03-19T08:43:02;12.97;;;11.10;;
19089;SDS011;9677;50.656;13.064;2023-03-19T08:45:32;11.93;;;10.60;;
19089;SDS011;9677;50.656;13.064;2023-03-19T08:48:01;15.20;;;11.00;;
19089;SDS011;9677;50.656;13.064;2023-03-19T08:50:30;12.43;;;11.20;;
19089;SDS011;9677;50.656;13.064;2023-03-19T08:52:59;11.83;;;10.63;;
19089;SDS011;9677;50.656;13.064;2023-03-19T08:55:27;11.93;;;10.73;;
19089;SDS011;9677;50.656;13.064;2023-03-19T08:57:55;13.27;;;9.80;;
19089;SDS011;9677;50.656;13.064;2023-03-19T09:00:24;11.40;;;10.20;;
19089;SDS011;9677;50.656;13.064;2023-03-19T09:02:53;12.33;;;11.03;;
19089;SDS011;9677;50.656;13.064;2023-03-19T09:05:23;14.13;;;11.07;;
19089;SDS011;9677;50.656;13.064;2023-03-19T09:07:55;13.00;;;10.43;;
19089;SDS011;9677;50.656;13.064;2023-03-19T09:10:23;12.43;;;10.47;;
19089;SDS011;9677;50.656;13.064;2023-03-19T09:12:51;11.90;;;10.70;;
19089;SDS011;9677;50.656;13.064;2023-03-19T09:15:20;14.03;;;10.97;;
19089;SDS011;9677;50.656;13.064;2023-03-19T09:17:48;12.00;;;10.80;;
19089;SDS011;9677;50.656;13.064;2023-03-19T09:20:17;11.80;;;10.60;;
19089;SDS011;9677;50.656;13.064;2023-03-19T09:22:47;11.47;;;10.00;;
19089;SDS011;9677;50.656;13.064;2023-03-19T09:25:15;12.37;;;10.60;;
19089;SDS011;9677;50.656;13.064;2023-03-19T09:27:44;11.30;;;10.13;;
19089;SDS011;9677;50.656;13.064;2023-03-19T09:30:12;13.83;;;10.50;;
19089;SDS011;9677;50.656;13.064;2023-03-19T09:32:41;11.40;;;10.20;;
19089;SDS011;9677;50.656;13.064;2023-03-19T09:35:10;12.63;;;10.00;;
19089;SDS011;9677;50.656;13.064;2023-03-19T09:37:38;11.63;;;9.70;;
19089;SDS011;9677;50.656;13.064;2023-03-19T09:40:09;11.03;;;9.90;;
19089;SDS011;9677;50.656;13.064;2023-03-19T09:42:52;11.87;;;9.77;;
19089;SDS011;9677;50.656;13.064;2023-03-19T09:45:28;10.50;;;9.47;;
19089;SDS011;9677;50.656;13.064;2023-03-19T09:47:57;12.80;;;10.00;;
19089;SDS011;9677;50.656;13.064;2023-03-19T09:50:32;10.50;;;9.50;;
19089;SDS011;9677;50.656;13.064;2023-03-19T09:53:02;10.60;;;9.50;;
19089;SDS011;9677;50.656;13.064;2023-03-19T09:55:43;11.10;;;10.00;;
19089;SDS011;9677;50.656;13.064;2023-03-19T09:58:16;11.23;;;10.03;;
19089;SDS011;9677;50.656;13.064;2023-03-19T10:00:47;10.70;;;9.60;;
19089;SDS011;9677;50.656;13.064;2023-03-19T10:03:28;10.83;;;9.73;;
19089;SDS011;9677;50.656;13.064;2023-03-19T10:06:19;10.60;;;9.50;;
19089;SDS011;9677;50.656;13.064;2023-03-19T10:09:00;10.40;;;9.40;;
19089;SDS011;9677;50.656;13.064;2023-03-19T10:11:50;11.83;;;9.60;;
19089;SDS011;9677;50.656;13.064;2023-03-19T10:14:35;10.87;;;9.60;;
19089;SDS011;9677;50.656;13.064;2023-03-19T10:17:23;11.10;;;10.00;;
19089;SDS011;9677;50.656;13.064;2023-03-19T10:19:56;12.30;;;9.67;;
19089;SDS011;9677;50.656;13.064;2023-03-19T10:22:29;10.20;;;9.20;;
19089;SDS011;9677;50.656;13.064;2023-03-19T10:25:02;10.73;;;9.63;;
19089;SDS011;9677;50.656;13.064;2023-03-19T10:27:34;12.23;;;9.30;;
19089;SDS011;9677;50.656;13.064;2023-03-19T10:30:09;10.60;;;9.20;;
19089;SDS011;9677;50.656;13.064;2023-03-19T10:32:41;12.83;;;9.23;;
19089;SDS011;9677;50.656;13.064;2023-03-19T10:35:15;10.53;;;9.43;;
19089;SDS011;9677;50.656;13.064;2023-03-19T10:37:47;11.23;;;9.50;;
19089;SDS011;9677;50.656;13.064;2023-03-19T10:40:18;11.07;;;9.90;;
19089;SDS011;9677;50.656;13.064;2023-03-19T10:43:05;11.93;;;10.27;;
19089;SDS011;9677;50.656;13.064;2023-03-19T10:45:40;11.30;;;10.10;;
19089;SDS011;9677;50.656;13.064;2023-03-19T10:48:11;11.23;;;10.03;;
19089;SDS011;9677;50.656;13.064;2023-03-19T10:50:44;13.63;;;10.53;;
19089;SDS011;9677;50.656;13.064;2023-03-19T10:53:25;14.10;;;10.30;;
19089;SDS011;9677;50.656;13.064;2023-03-19T10:56:00;11.00;;;9.90;;
19089;SDS011;9677;50.656;13.064;2023-03-19T10:58:33;10.90;;;9.80;;
19089;SDS011;9677;50.656;13.064;2023-03-19T11:01:03;11.33;;;9.63;;
19089;SDS011;9677;50.656;13.064;2023-03-19T11:03:35;11.20;;;9.60;;
19089;SDS011;9677;50.656;13.064;2023-03-19T11:06:14;10.77;;;9.40;;
19089;SDS011;9677;50.656;13.064;2023-03-19T11:08:48;9.90;;;8.90;;
19089;SDS011;9677;50.656;13.064;2023-03-19T11:11:23;10.27;;;9.27;;
19089;SDS011;9677;50.656;13.064;2023-03-19T11:14:09;10.30;;;9.30;;
19089;SDS011;9677;50.656;13.064;2023-03-19T11:16:46;9.67;;;8.77;;
19089;SDS011;9677;50.656;13.064;2023-03-19T11:19:23;9.53;;;8.63;;
19089;SDS011;9677;50.656;13.064;2023-03-19T11:22:00;9.70;;;8.73;;
19089;SDS011;9677;50.656;13.064;2023-03-19T11:24:37;9.70;;;8.80;;
19089;SDS011;9677;50.656;13.064;2023-03-19T11:27:08;9.40;;;8.50;;
19089;SDS011;9677;50.656;13.064;2023-03-19T11:29:40;9.67;;;8.77;;
19089;SDS011;9677;50.656;13.064;2023-03-19T11:32:17;10.23;;;9.23;;
19089;SDS011;9677;50.656;13.064;2023-03-19T11:35:22;9.70;;;8.80;;
19089;SDS011;9677;50.656;13.064;2023-03-19T11:37:54;10.00;;;8.57;;
19089;SDS011;9677;50.656;13.064;2023-03-19T11:40:28;9.60;;;8.70;;
19089;SDS011;9677;50.656;13.064;2023-03-19T11:43:09;9.77;;;8.87;;
19089;SDS011;9677;50.656;13.064;2023-03-19T11:45:59;10.00;;;9.00;;
19089;SDS011;9677;50.656;13.064;2023-03-19T11:48:40;9.40;;;8.50;;
19089;SDS011;9677;50.656;13.064;2023-03-19T11:51:29;9.63;;;8.73;;
19089;SDS011;9677;50.656;13.064;2023-03-19T11:54:04;9.57;;;8.63;;
19089;SDS011;9677;50.656;13.064;2023-03-19T11:56:47;9.53;;;8.63;;
19089;SDS011;9677;50.656;13.064;2023-03-19T11:59:28;9.97;;;8.97;;
19089;SDS011;9677;50.656;13.064;2023-03-19T12:02:25;10.73;;;8.80;;
19089;SDS011;9677;50.656;13.064;2023-03-19T12:05:28;9.80;;;8.90;;
19089;SDS011;9677;50.656;13.064;2023-03-19T12:08:05;9.60;;;8.70;;
19089;SDS011;9677;50.656;13.064;2023-03-19T12:10:50;9.13;;;8.33;;
19089;SDS011;9677;50.656;13.064;2023-03-19T12:13:29;9.37;;;8.47;;
19089;SDS011;9677;50.656;13.064;2023-03-19T12:16:16;9.50;;;8.60;;
19089;SDS011;9677;50.656;13.064;2023-03-19T12:19:00;9.50;;;8.57;;
19089;SDS011;9677;50.656;13.064;2023-03-19T12:21:53;9.70;;;8.80;;
19089;SDS011;9677;50.656;13.064;2023-03-19T12:24:34;9.93;;;9.03;;
19089;SDS011;9677;50.656;13.064;2023-03-19T12:27:17;9.80;;;8.80;;
19089;SDS011;9677;50.656;13.064;2023-03-19T12:29:56;10.40;;;9.30;;
19089;SDS011;9677;50.656;13.064;2023-03-19T12:32:42;9.40;;;8.50;;
19089;SDS011;9677;50.656;13.064;2023-03-19T12:35:28;9.90;;;8.90;;
19089;SDS011;9677;50.656;13.064;2023-03-19T12:38:02;9.53;;;8.63;;
19089;SDS011;9677;50.656;13.064;2023-03-19T12:40:38;9.70;;;8.80;;
19089;SDS011;9677;50.656;13.064;2023-03-19T12:43:14;9.33;;;8.50;;
19089;SDS011;9677;50.656;13.064;2023-03-19T12:45:46;10.93;;;8.90;;
19089;SDS011;9677;50.656;13.064;2023-03-19T12:48:24;9.50;;;8.60;;
19089;SDS011;9677;50.656;13.064;2023-03-19T12:50:58;9.60;;;8.70;;
19089;SDS011;9677;50.656;13.064;2023-03-19T12:53:34;9.80;;;8.80;;
19089;SDS011;9677;50.656;13.064;2023-03-19T12:56:16;13.63;;;10.20;;
19089;SDS011;9677;50.656;13.064;2023-03-19T12:58:53;10.67;;;9.50;;
19089;SDS011;9677;50.656;13.064;2023-03-19T13:01:28;10.60;;;9.50;;
19089;SDS011;9677;50.656;13.064;2023-03-19T13:04:02;10.30;;;9.30;;
19089;SDS011;9677;50.656;13.064;2023-03-19T13:06:40;10.23;;;9.13;;
19089;SDS011;9677;50.656;13.064;2023-03-19T13:09:19;10.07;;;9.07;;
19089;SDS011;9677;50.656;13.064;2023-03-19T13:11:57;10.70;;;9.60;;
19089;SDS011;9677;50.656;13.064;2023-03-19T13:14:31;10.10;;;9.10;;
19089;SDS011;9677;50.656;13.064;2023-03-19T13:17:11;10.03;;;9.10;;
19089;SDS011;9677;50.656;13.064;2023-03-19T13:19:47;11.07;;;9.43;;
19089;SDS011;9677;50.656;13.064;2023-03-19T13:22:21;14.70;;;10.20;;
19089;SDS011;9677;50.656;13.064;2023-03-19T13:24:53;10.70;;;9.60;;
19089;SDS011;9677;50.656;13.064;2023-03-19T13:27:23;12.03;;;9.73;;
19089;SDS011;9677;50.656;13.064;2023-03-19T13:30:01;10.60;;;9.60;;
19089;SDS011;9677;50.656;13.064;2023-03-19T13:32:44;13.03;;;9.60;;
19089;SDS011;9677;50.656;13.064;2023-03-19T13:35:19;10.07;;;9.17;;
19089;SDS011;9677;50.656;13.064;2023-03-19T13:38:06;9.80;;;8.90;;
19089;SDS011;9677;50.656;13.064;2023-03-19T13:40:45;9.93;;;9.00;;
19089;SDS011;9677;50.656;13.064;2023-03-19T13:46:28;10.10;;;9.10;;
19089;SDS011;9677;50.656;13.064;2023-03-19T13:49:23;10.20;;;9.20;;
19089;SDS011;9677;50.656;13.064;2023-03-19T13:52:00;9.80;;;8.90;;
19089;SDS011;9677;50.656;13.064;2023-03-19T13:58:18;9.80;;;8.90;;
19089;SDS011;9677;50.656;13.064;2023-03-19T14:01:09;9.73;;;8.77;;
19089;SDS011;9677;50.656;13.064;2023-03-19T14:03:50;10.10;;;9.10;;
19089;SDS011;9677;50.656;13.064;2023-03-19T14:06:31;11.83;;;9.47;;
19089;SDS011;9677;50.656;13.064;2023-03-19T14:09:26;12.20;;;9.80;;
19089;SDS011;9677;50.656;13.064;2023-03-19T14:12:07;10.17;;;9.17;;
19089;SDS011;9677;50.656;13.064;2023-03-19T14:14:50;10.53;;;9.33;;
19089;SDS011;9677;50.656;13.064;2023-03-19T14:17:23;10.10;;;9.10;;
19089;SDS011;9677;50.656;13.064;2023-03-19T14:19:55;10.40;;;9.27;;
19089;SDS011;9677;50.656;13.064;2023-03-19T14:22:36;10.10;;;9.10;;
19089;SDS011;9677;50.656;13.064;2023-03-19T14:25:14;9.93;;;8.93;;
19089;SDS011;9677;50.656;13.064;2023-03-19T14:27:47;9.83;;;8.83;;
19089;SDS011;9677;50.656;13.064;2023-03-19T14:30:19;9.80;;;8.90;;
19089;SDS011;9677;50.656;13.064;2023-03-19T14:32:57;9.60;;;8.70;;
19089;SDS011;9677;50.656;13.064;2023-03-19T14:35:31;9.73;;;8.83;;
19089;SDS011;9677;50.656;13.064;2023-03-19T14:38:03;9.57;;;8.63;;
19089;SDS011;9677;50.656;13.064;2023-03-19T14:40:43;9.63;;;8.50;;
19089;SDS011;9677;50.656;13.064;2023-03-19T14:43:21;9.40;;;8.60;;
19089;SDS011;9677;50.656;13.064;2023-03-19T14:46:09;9.77;;;8.87;;
19089;SDS011;9677;50.656;13.064;2023-03-19T14:48:57;9.80;;;8.90;;
19089;SDS011;9677;50.656;13.064;2023-03-19T14:51:59;9.40;;;8.60;;
19089;SDS011;9677;50.656;13.064;2023-03-19T14:54:33;10.00;;;9.00;;
19089;SDS011;9677;50.656;13.064;2023-03-19T14:57:13;9.33;;;8.53;;
19089;SDS011;9677;50.656;13.064;2023-03-19T14:59:44;9.40;;;8.60;;
19089;SDS011;9677;50.656;13.064;2023-03-19T15:02:20;9.10;;;8.30;;
19089;SDS011;9677;50.656;13.064;2023-03-19T15:05:02;8.93;;;8.20;;
19089;SDS011;9677;50.656;13.064;2023-03-19T15:07:34;9.60;;;8.80;;
19089;SDS011;9677;50.656;13.064;2023-03-19T15:10:05;9.20;;;8.40;;
19089;SDS011;9677;50.656;13.064;2023-03-19T15:12:52;9.30;;;8.50;;